sensor_id;sensor_type;location;lat;lon;timestamp;pressure;altitude;pressure_sealevel;temperature;humidity
39793;BME280;26080;42.264;24.536;2023-02-15T00:01:21;100552.81;;;0.20;100.00
39793;BME280;26080;42.264;24.536;2023-02-15T00:03:48;100555.31;;;0.15;100.00
39793;BME280;26080;42.264;24.536;2023-02-15T00:06:14;100554.41;;;0.13;100.00
39793;BME280;26080;42.264;24.536;2023-02-15T00:08:40;100555.25;;;0.12;100.00
39793;BME280;26080;42.264;24.536;2023-02-15T00:11:14;100530.91;;;-0.08;100.00
39793;BME280;26080;42.264;24.536;2023-02-15T00:13:41;100531.63;;;-0.17;100.00
39793;BME280;26080;42.264;24.536;2023-02-15T00:16:08;100566.94;;;-0.11;100.00
39793;BME280;26080;42.264;24.536;2023-02-15T00:18:34;100539.13;;;-0.31;100.00
39793;BME280;26080;42.264;24.536;2023-02-15T00:21:04;100558.00;;;-0.32;100.00
39793;BME280;26080;42.264;24.536;2023-02-15T00:23:30;100561.22;;;-0.43;100.00
39793;BME280;26080;42.264;24.536;2023-02-15T00:26:11;100572.31;;;-0.47;100.00
39793;BME280;26080;42.264;24.536;2023-02-15T00:28:38;100549.00;;;-0.55;100.00
39793;BME280;26080;42.264;24.536;2023-02-15T00:31:10;100577.69;;;-0.35;100.00
39793;BME280;26080;42.264;24.536;2023-02-15T00:33:37;100525.69;;;-0.66;100.00
39793;BME280;26080;42.264;24.536;2023-02-15T00:36:04;100581.66;;;-0.54;100.00
39793;BME280;26080;42.264;24.536;2023-02-15T00:38:31;100560.78;;;-0.69;100.00
39793;BME280;26080;42.264;24.536;2023-02-15T00:40:58;100574.59;;;-0.66;100.00
39793;BME280;26080;42.264;24.536;2023-02-15T00:43:25;100581.25;;;-0.75;100.00
39793;BME280;26080;42.264;24.536;2023-02-15T00:45:51;100574.97;;;-0.91;100.00
39793;BME280;26080;42.264;24.536;2023-02-15T00:48:16;100584.53;;;-0.82;100.00
39793;BME280;26080;42.264;24.536;2023-02-15T00:51:05;100572.66;;;-0.77;100.00
39793;BME280;26080;42.264;24.536;2023-02-15T00:53:30;100570.66;;;-0.92;100.00
39793;BME280;26080;42.264;24.536;2023-02-15T00:55:56;100565.09;;;-1.12;100.00
39793;BME280;26080;42.264;24.536;2023-02-15T00:58:22;100573.50;;;-1.22;100.00
39793;BME280;26080;42.264;24.536;2023-02-15T01:00:49;100540.53;;;-1.40;100.00
39793;BME280;26080;42.264;24.536;2023-02-15T01:03:16;100566.66;;;-1.20;100.00
39793;BME280;26080;42.264;24.536;2023-02-15T01:05:42;100567.56;;;-1.18;100.00
39793;BME280;26080;42.264;24.536;2023-02-15T01:08:07;100561.41;;;-1.25;100.00
39793;BME280;26080;42.264;24.536;2023-02-15T01:10:34;100566.50;;;-1.28;100.00
39793;BME280;26080;42.264;24.536;2023-02-15T01:13:00;100566.28;;;-1.38;100.00
39793;BME280;26080;42.264;24.536;2023-02-15T01:15:26;100562.78;;;-1.42;100.00
39793;BME280;26080;42.264;24.536;2023-02-15T01:17:51;100536.59;;;-1.65;100.00
39793;BME280;26080;42.264;24.536;2023-02-15T01:20:24;100565.13;;;-1.53;100.00
39793;BME280;26080;42.264;24.536;2023-02-15T01:22:51;100560.66;;;-1.61;100.00
39793;BME280;26080;42.264;24.536;2023-02-15T01:25:17;100563.94;;;-1.67;100.00
39793;BME280;26080;42.264;24.536;2023-02-15T01:27:43;100557.84;;;-1.72;100.00
39793;BME280;26080;42.264;24.536;2023-02-15T01:30:09;100541.09;;;-1.94;100.00
39793;BME280;26080;42.264;24.536;2023-02-15T01:32:35;100572.09;;;-1.86;100.00
39793;BME280;26080;42.264;24.536;2023-02-15T01:35:01;100564.22;;;-1.92;100.00
39793;BME280;26080;42.264;24.536;2023-02-15T01:37:27;100563.31;;;-1.94;100.00
39793;BME280;26080;42.264;24.536;2023-02-15T01:39:52;100541.63;;;-2.07;100.00
39793;BME280;26080;42.264;24.536;2023-02-15T01:42:24;100573.75;;;-1.88;100.00
39793;BME280;26080;42.264;24.536;2023-02-15T01:52:30;100586.47;;;-1.93;100.00
39793;BME280;26080;42.264;24.536;2023-02-15T01:54:56;100581.63;;;-1.81;100.00
39793;BME280;26080;42.264;24.536;2023-02-15T01:57:23;100591.25;;;-1.72;100.00
39793;BME280;26080;42.264;24.536;2023-02-15T01:59:56;100589.84;;;-1.58;100.00
39793;BME280;26080;42.264;24.536;2023-02-15T02:02:23;100583.84;;;-1.58;100.00
39793;BME280;26080;42.264;24.536;2023-02-15T02:04:53;100589.16;;;-1.51;100.00
39793;BME280;26080;42.264;24.536;2023-02-15T02:07:23;100600.94;;;-1.60;100.00
39793;BME280;26080;42.264;24.536;2023-02-15T02:09:48;100556.47;;;-1.95;100.00
39793;BME280;26080;42.264;24.536;2023-02-15T02:12:16;100594.72;;;-1.70;100.00
39793;BME280;26080;42.264;24.536;2023-02-15T02:14:43;100594.03;;;-1.63;100.00
39793;BME280;26080;42.264;24.536;2023-02-15T02:25:32;100591.66;;;-1.54;100.00
39793;BME280;26080;42.264;24.536;2023-02-15T02:42:59;100584.03;;;-1.51;100.00
39793;BME280;26080;42.264;24.536;2023-02-15T02:44:52;100594.53;;;-1.38;100.00
39793;BME280;26080;42.264;24.536;2023-02-15T02:50:06;100591.19;;;-1.36;100.00
39793;BME280;26080;42.264;24.536;2023-02-15T02:55:06;100597.88;;;-1.42;100.00
39793;BME280;26080;42.264;24.536;2023-02-15T02:57:34;100592.63;;;-1.48;100.00
39793;BME280;26080;42.264;24.536;2023-02-15T03:00:04;100594.31;;;-1.51;100.00
39793;BME280;26080;42.264;24.536;2023-02-15T03:02:37;100601.22;;;-1.48;100.00
39793;BME280;26080;42.264;24.536;2023-02-15T03:05:09;100597.84;;;-1.45;100.00
39793;BME280;26080;42.264;24.536;2023-02-15T03:07:37;100604.69;;;-1.46;100.00
39793;BME280;26080;42.264;24.536;2023-02-15T03:10:06;100614.91;;;-1.47;100.00
39793;BME280;26080;42.264;24.536;2023-02-15T03:12:35;100610.03;;;-1.37;100.00
39793;BME280;26080;42.264;24.536;2023-02-15T03:17:36;100614.97;;;-1.44;100.00
39793;BME280;26080;42.264;24.536;2023-02-15T03:20:18;100608.09;;;-1.45;100.00
39793;BME280;26080;42.264;24.536;2023-02-15T03:22:54;100610.47;;;-1.55;100.00
39793;BME280;26080;42.264;24.536;2023-02-15T03:25:27;100602.59;;;-1.62;100.00
39793;BME280;26080;42.264;24.536;2023-02-15T03:28:01;100608.34;;;-1.72;100.00
39793;BME280;26080;42.264;24.536;2023-02-15T03:30:29;100612.63;;;-1.73;100.00
39793;BME280;26080;42.264;24.536;2023-02-15T03:32:58;100620.22;;;-1.77;100.00
39793;BME280;26080;42.264;24.536;2023-02-15T03:35:33;100584.72;;;-1.94;100.00
39793;BME280;26080;42.264;24.536;2023-02-15T03:38:05;100603.91;;;-1.80;100.00
39793;BME280;26080;42.264;24.536;2023-02-15T03:40:41;100609.91;;;-1.79;100.00
39793;BME280;26080;42.264;24.536;2023-02-15T03:43:55;100620.47;;;-1.67;100.00
39793;BME280;26080;42.264;24.536;2023-02-15T03:46:45;100626.72;;;-1.56;100.00
39793;BME280;26080;42.264;24.536;2023-02-15T03:49:25;100629.34;;;-1.53;100.00
39793;BME280;26080;42.264;24.536;2023-02-15T03:51:55;100627.63;;;-1.54;100.00
39793;BME280;26080;42.264;24.536;2023-02-15T03:54:27;100622.41;;;-1.57;100.00
39793;BME280;26080;42.264;24.536;2023-02-15T04:00:00;100587.78;;;-1.74;100.00
39793;BME280;26080;42.264;24.536;2023-02-15T04:02:51;100621.72;;;-1.50;100.00
39793;BME280;26080;42.264;24.536;2023-02-15T04:05:20;100621.63;;;-1.53;100.00
39793;BME280;26080;42.264;24.536;2023-02-15T04:07:45;100626.75;;;-1.54;100.00
39793;BME280;26080;42.264;24.536;2023-02-15T04:10:11;100628.16;;;-1.67;100.00
39793;BME280;26080;42.264;24.536;2023-02-15T04:12:56;100614.25;;;-1.76;100.00
39793;BME280;26080;42.264;24.536;2023-02-15T04:15:21;100606.38;;;-1.84;100.00
39793;BME280;26080;42.264;24.536;2023-02-15T04:18:05;100627.84;;;-1.81;100.00
39793;BME280;26080;42.264;24.536;2023-02-15T04:20:30;100608.88;;;-1.87;100.00
39793;BME280;26080;42.264;24.536;2023-02-15T04:23:18;100618.38;;;-1.83;100.00
39793;BME280;26080;42.264;24.536;2023-02-15T04:26:03;100622.59;;;-1.85;100.00
39793;BME280;26080;42.264;24.536;2023-02-15T04:28:29;100628.59;;;-1.86;100.00
39793;BME280;26080;42.264;24.536;2023-02-15T04:30:55;100626.63;;;-1.96;100.00
39793;BME280;26080;42.264;24.536;2023-02-15T04:33:21;100629.97;;;-1.99;100.00
39793;BME280;26080;42.264;24.536;2023-02-15T04:35:46;100608.88;;;-2.22;100.00
39793;BME280;26080;42.264;24.536;2023-02-15T04:38:12;100630.09;;;-1.94;100.00
39793;BME280;26080;42.264;24.536;2023-02-15T04:40:37;100629.94;;;-2.00;100.00
39793;BME280;26080;42.264;24.536;2023-02-15T04:43:03;100635.09;;;-2.00;100.00
39793;BME280;26080;42.264;24.536;2023-02-15T04:45:28;100627.97;;;-2.11;100.00
39793;BME280;26080;42.264;24.536;2023-02-15T04:47:53;100658.19;;;-2.00;100.00
39793;BME280;26080;42.264;24.536;2023-02-15T04:50:19;100660.50;;;-1.76;100.00
39793;BME280;26080;42.264;24.536;2023-02-15T04:52:45;100657.34;;;-1.99;100.00
39793;BME280;26080;42.264;24.536;2023-02-15T04:55:10;100664.69;;;-2.15;100.00
39793;BME280;26080;42.264;24.536;2023-02-15T04:57:35;100663.00;;;-2.13;100.00
39793;BME280;26080;42.264;24.536;2023-02-15T05:00:01;100658.84;;;-2.08;100.00
39793;BME280;26080;42.264;24.536;2023-02-15T05:02:27;100675.53;;;-1.92;100.00
39793;BME280;26080;42.264;24.536;2023-02-15T05:04:53;100669.66;;;-1.86;100.00
39793;BME280;26080;42.264;24.536;2023-02-15T05:07:18;100681.53;;;-1.91;100.00
39793;BME280;26080;42.264;24.536;2023-02-15T05:09:45;100671.25;;;-1.91;100.00
39793;BME280;26080;42.264;24.536;2023-02-15T05:12:14;100677.69;;;-2.07;100.00
39793;BME280;26080;42.264;24.536;2023-02-15T05:14:39;100677.25;;;-2.24;100.00
39793;BME280;26080;42.264;24.536;2023-02-15T05:17:05;100683.84;;;-2.33;100.00
39793;BME280;26080;42.264;24.536;2023-02-15T05:19:30;100686.00;;;-2.49;100.00
39793;BME280;26080;42.264;24.536;2023-02-15T05:21:56;100697.22;;;-2.45;100.00
39793;BME280;26080;42.264;24.536;2023-02-15T05:24:22;100679.78;;;-2.58;100.00
39793;BME280;26080;42.264;24.536;2023-02-15T05:27:06;100670.16;;;-2.65;100.00
39793;BME280;26080;42.264;24.536;2023-02-15T05:29:51;100693.72;;;-2.47;100.00
39793;BME280;26080;42.264;24.536;2023-02-15T05:32:16;100695.72;;;-2.37;100.00
39793;BME280;26080;42.264;24.536;2023-02-15T05:34:42;100696.94;;;-2.24;100.00
39793;BME280;26080;42.264;24.536;2023-02-15T05:37:07;100707.91;;;-1.97;100.00
39793;BME280;26080;42.264;24.536;2023-02-15T05:39:33;100716.47;;;-1.96;100.00
39793;BME280;26080;42.264;24.536;2023-02-15T05:41:59;100718.25;;;-2.27;100.00
39793;BME280;26080;42.264;24.536;2023-02-15T05:44:25;100718.84;;;-2.35;100.00
39793;BME280;26080;42.264;24.536;2023-02-15T05:46:50;100708.81;;;-2.59;100.00
39793;BME280;26080;42.264;24.536;2023-02-15T05:49:16;100709.56;;;-2.62;100.00
39793;BME280;26080;42.264;24.536;2023-02-15T05:51:41;100728.84;;;-2.46;100.00
39793;BME280;26080;42.264;24.536;2023-02-15T05:54:07;100698.56;;;-2.59;100.00
39793;BME280;26080;42.264;24.536;2023-02-15T05:56:33;100735.13;;;-2.35;100.00
39793;BME280;26080;42.264;24.536;2023-02-15T05:58:58;100728.44;;;-2.30;100.00
39793;BME280;26080;42.264;24.536;2023-02-15T06:01:24;100745.97;;;-2.14;100.00
39793;BME280;26080;42.264;24.536;2023-02-15T06:03:49;100731.06;;;-1.95;100.00
39793;BME280;26080;42.264;24.536;2023-02-15T06:06:15;100742.59;;;-1.80;100.00
39793;BME280;26080;42.264;24.536;2023-02-15T06:08:41;100742.03;;;-1.68;100.00
39793;BME280;26080;42.264;24.536;2023-02-15T06:11:07;100744.00;;;-1.58;100.00
39793;BME280;26080;42.264;24.536;2023-02-15T06:13:33;100751.03;;;-1.51;100.00
39793;BME280;26080;42.264;24.536;2023-02-15T06:15:59;100745.34;;;-1.37;100.00
39793;BME280;26080;42.264;24.536;2023-02-15T06:18:25;100725.66;;;-1.37;100.00
39793;BME280;26080;42.264;24.536;2023-02-15T06:20:50;100757.00;;;-1.15;100.00
39793;BME280;26080;42.264;24.536;2023-02-15T06:23:15;100728.69;;;-1.17;100.00
39793;BME280;26080;42.264;24.536;2023-02-15T06:25:41;100755.75;;;-0.95;100.00
39793;BME280;26080;42.264;24.536;2023-02-15T06:28:07;100748.38;;;-0.80;100.00
39793;BME280;26080;42.264;24.536;2023-02-15T06:30:32;100742.00;;;-0.56;100.00
39793;BME280;26080;42.264;24.536;2023-02-15T06:32:58;100755.22;;;-0.40;100.00
39793;BME280;26080;42.264;24.536;2023-02-15T06:35:24;100754.69;;;-0.23;100.00
39793;BME280;26080;42.264;24.536;2023-02-15T06:37:50;100744.75;;;-0.04;100.00
39793;BME280;26080;42.264;24.536;2023-02-15T06:40:15;100745.19;;;0.21;100.00
39793;BME280;26080;42.264;24.536;2023-02-15T06:42:41;100752.28;;;0.34;100.00
39793;BME280;26080;42.264;24.536;2023-02-15T06:45:08;100750.88;;;0.51;100.00
39793;BME280;26080;42.264;24.536;2023-02-15T06:47:34;100752.81;;;0.66;100.00
39793;BME280;26080;42.264;24.536;2023-02-15T06:49:59;100752.09;;;0.75;100.00
39793;BME280;26080;42.264;24.536;2023-02-15T06:52:25;100753.13;;;0.86;100.00
39793;BME280;26080;42.264;24.536;2023-02-15T06:54:51;100749.03;;;0.99;100.00
39793;BME280;26080;42.264;24.536;2023-02-15T06:57:16;100750.84;;;1.07;100.00
39793;BME280;26080;42.264;24.536;2023-02-15T06:59:42;100744.09;;;1.14;100.00
39793;BME280;26080;42.264;24.536;2023-02-15T07:02:10;100732.19;;;1.24;100.00
39793;BME280;26080;42.264;24.536;2023-02-15T07:04:36;100740.91;;;1.36;100.00
39793;BME280;26080;42.264;24.536;2023-02-15T07:07:02;100742.06;;;1.57;100.00
39793;BME280;26080;42.264;24.536;2023-02-15T07:09:27;100744.66;;;1.58;100.00
39793;BME280;26080;42.264;24.536;2023-02-15T07:11:53;100729.34;;;1.75;100.00
39793;BME280;26080;42.264;24.536;2023-02-15T07:14:37;100744.94;;;1.84;100.00
39793;BME280;26080;42.264;24.536;2023-02-15T07:17:03;100731.31;;;1.97;100.00
39793;BME280;26080;42.264;24.536;2023-02-15T07:19:28;100736.59;;;2.06;100.00
39793;BME280;26080;42.264;24.536;2023-02-15T07:21:54;100744.53;;;2.26;100.00
39793;BME280;26080;42.264;24.536;2023-02-15T07:24:19;100736.78;;;2.28;100.00
39793;BME280;26080;42.264;24.536;2023-02-15T07:26:45;100733.53;;;2.47;100.00
39793;BME280;26080;42.264;24.536;2023-02-15T07:29:10;100740.44;;;2.54;100.00
39793;BME280;26080;42.264;24.536;2023-02-15T07:31:36;100737.06;;;2.61;100.00
39793;BME280;26080;42.264;24.536;2023-02-15T07:34:06;100729.41;;;2.75;100.00
39793;BME280;26080;42.264;24.536;2023-02-15T07:36:32;100719.06;;;2.75;100.00
39793;BME280;26080;42.264;24.536;2023-02-15T07:38:58;100737.31;;;3.01;100.00
39793;BME280;26080;42.264;24.536;2023-02-15T07:41:24;100712.38;;;3.11;100.00
39793;BME280;26080;42.264;24.536;2023-02-15T07:43:49;100738.38;;;3.32;100.00
39793;BME280;26080;42.264;24.536;2023-02-15T07:46:16;100734.13;;;3.43;100.00
39793;BME280;26080;42.264;24.536;2023-02-15T07:48:42;100730.75;;;3.64;100.00
39793;BME280;26080;42.264;24.536;2023-02-15T07:51:10;100725.59;;;3.73;100.00
39793;BME280;26080;42.264;24.536;2023-02-15T07:53:37;100723.06;;;3.85;100.00
39793;BME280;26080;42.264;24.536;2023-02-15T07:56:09;100727.41;;;3.99;100.00
39793;BME280;26080;42.264;24.536;2023-02-15T07:58:35;100727.41;;;4.08;100.00
39793;BME280;26080;42.264;24.536;2023-02-15T08:03:48;100710.16;;;4.33;100.00
39793;BME280;26080;42.264;24.536;2023-02-15T08:06:14;100705.84;;;4.39;100.00
39793;BME280;26080;42.264;24.536;2023-02-15T08:08:40;100727.44;;;4.66;100.00
39793;BME280;26080;42.264;24.536;2023-02-15T08:14:13;100727.41;;;4.90;100.00
39793;BME280;26080;42.264;24.536;2023-02-15T08:16:45;100721.34;;;4.96;100.00
39793;BME280;26080;42.264;24.536;2023-02-15T08:21:48;100727.38;;;5.12;100.00
39793;BME280;26080;42.264;24.536;2023-02-15T08:24:16;100736.88;;;5.22;100.00
39793;BME280;26080;42.264;24.536;2023-02-15T08:26:42;100703.97;;;5.24;100.00
39793;BME280;26080;42.264;24.536;2023-02-15T08:29:10;100678.91;;;5.09;100.00
39793;BME280;26080;42.264;24.536;2023-02-15T08:31:36;100683.16;;;5.28;100.00
39793;BME280;26080;42.264;24.536;2023-02-15T08:34:03;100687.47;;;5.37;100.00
39793;BME280;26080;42.264;24.536;2023-02-15T08:36:30;100725.44;;;5.69;100.00
39793;BME280;26080;42.264;24.536;2023-02-15T08:38:58;100725.41;;;5.73;100.00
39793;BME280;26080;42.264;24.536;2023-02-15T08:41:26;100720.19;;;5.75;100.00
39793;BME280;26080;42.264;24.536;2023-02-15T08:43:54;100714.09;;;5.83;100.00
39793;BME280;26080;42.264;24.536;2023-02-15T08:46:21;100692.41;;;5.86;100.00
39793;BME280;26080;42.264;24.536;2023-02-15T08:48:47;100715.66;;;6.15;100.00
39793;BME280;26080;42.264;24.536;2023-02-15T08:51:18;100687.06;;;6.13;100.00
39793;BME280;26080;42.264;24.536;2023-02-15T08:53:48;100675.00;;;6.06;100.00
39793;BME280;26080;42.264;24.536;2023-02-15T08:56:18;100718.97;;;6.37;100.00
39793;BME280;26080;42.264;24.536;2023-02-15T08:58:45;100714.63;;;6.39;100.00
39793;BME280;26080;42.264;24.536;2023-02-15T09:01:15;100724.13;;;6.43;100.00
39793;BME280;26080;42.264;24.536;2023-02-15T09:03:46;100715.44;;;6.47;100.00
39793;BME280;26080;42.264;24.536;2023-02-15T09:06:13;100715.34;;;6.54;100.00
39793;BME280;26080;42.264;24.536;2023-02-15T09:08:38;100710.91;;;6.67;100.00
39793;BME280;26080;42.264;24.536;2023-02-15T09:11:10;100712.59;;;6.71;100.00
39793;BME280;26080;42.264;24.536;2023-02-15T09:13:37;100709.16;;;6.68;100.00
39793;BME280;26080;42.264;24.536;2023-02-15T09:16:08;100691.91;;;6.56;100.00
39793;BME280;26080;42.264;24.536;2023-02-15T09:18:37;100662.41;;;6.60;100.00
39793;BME280;26080;42.264;24.536;2023-02-15T09:21:05;100707.97;;;7.02;95.63
39793;BME280;26080;42.264;24.536;2023-02-15T09:23:30;100702.69;;;7.08;95.77
39793;BME280;26080;42.264;24.536;2023-02-15T09:25:56;100699.28;;;7.03;94.89
39793;BME280;26080;42.264;24.536;2023-02-15T09:28:21;100691.50;;;6.99;92.30
39793;BME280;26080;42.264;24.536;2023-02-15T09:30:47;100690.44;;;7.18;94.46
39793;BME280;26080;42.264;24.536;2023-02-15T09:33:13;100675.72;;;7.14;93.91
39793;BME280;26080;42.264;24.536;2023-02-15T09:35:38;100677.13;;;7.39;92.81
39793;BME280;26080;42.264;24.536;2023-02-15T09:38:04;100690.16;;;7.39;93.93
39793;BME280;26080;42.264;24.536;2023-02-15T09:40:35;100669.47;;;7.29;93.77
39793;BME280;26080;42.264;24.536;2023-02-15T09:43:27;100682.28;;;7.46;93.00
39793;BME280;26080;42.264;24.536;2023-02-15T09:46:08;100683.94;;;7.54;91.62
39793;BME280;26080;42.264;24.536;2023-02-15T09:48:41;100685.56;;;7.61;93.94
39793;BME280;26080;42.264;24.536;2023-02-15T09:51:37;100671.66;;;7.61;92.82
39793;BME280;26080;42.264;24.536;2023-02-15T09:54:15;100674.25;;;7.62;90.53
39793;BME280;26080;42.264;24.536;2023-02-15T09:56:48;100638.03;;;7.42;89.76
39793;BME280;26080;42.264;24.536;2023-02-15T10:04:33;100663.44;;;7.88;89.39
39793;BME280;26080;42.264;24.536;2023-02-15T10:20:27;100632.53;;;8.18;84.71
39793;BME280;26080;42.264;24.536;2023-02-15T10:23:13;100647.25;;;8.23;84.00
39793;BME280;26080;42.264;24.536;2023-02-15T10:28:16;100636.63;;;8.37;82.73
39793;BME280;26080;42.264;24.536;2023-02-15T10:30:47;100642.50;;;8.48;76.94
39793;BME280;26080;42.264;24.536;2023-02-15T10:33:38;100638.06;;;8.53;77.08
39793;BME280;26080;42.264;24.536;2023-02-15T10:41:26;100625.81;;;8.57;76.79
39793;BME280;26080;42.264;24.536;2023-02-15T10:44:13;100612.72;;;8.58;76.13
39793;BME280;26080;42.264;24.536;2023-02-15T10:55:27;100601.91;;;8.77;76.72
39793;BME280;26080;42.264;24.536;2023-02-15T11:00:44;100596.59;;;8.83;75.65
39793;BME280;26080;42.264;24.536;2023-02-15T11:08:24;100582.13;;;9.10;73.84
39793;BME280;26080;42.264;24.536;2023-02-15T11:10:54;100592.38;;;9.17;73.22
39793;BME280;26080;42.264;24.536;2023-02-15T11:13:25;100567.22;;;9.13;72.02
39793;BME280;26080;42.264;24.536;2023-02-15T11:18:32;100580.03;;;9.26;69.57
39793;BME280;26080;42.264;24.536;2023-02-15T11:27:55;100567.16;;;9.55;66.76
39793;BME280;26080;42.264;24.536;2023-02-15T11:30:23;100542.88;;;9.50;66.63
39793;BME280;26080;42.264;24.536;2023-02-15T11:32:55;100543.09;;;9.41;68.52
39793;BME280;26080;42.264;24.536;2023-02-15T11:35:46;100544.59;;;9.51;68.49
39793;BME280;26080;42.264;24.536;2023-02-15T11:38:20;100539.56;;;9.42;67.09
39793;BME280;26080;42.264;24.536;2023-02-15T11:40:53;100531.81;;;9.39;69.29
39793;BME280;26080;42.264;24.536;2023-02-15T11:46:14;100530.56;;;9.55;67.09
39793;BME280;26080;42.264;24.536;2023-02-15T11:48:40;100532.34;;;9.53;66.86
39793;BME280;26080;42.264;24.536;2023-02-15T11:51:25;100499.47;;;9.43;66.65
39793;BME280;26080;42.264;24.536;2023-02-15T11:53:53;100525.06;;;9.66;66.38
39793;BME280;26080;42.264;24.536;2023-02-15T11:56:24;100486.28;;;9.47;67.08
39793;BME280;26080;42.264;24.536;2023-02-15T12:01:31;100512.81;;;9.68;67.21
39793;BME280;26080;42.264;24.536;2023-02-15T12:04:25;100525.69;;;9.77;63.97
39793;BME280;26080;42.264;24.536;2023-02-15T12:07:13;100512.44;;;9.83;63.51
39793;BME280;26080;42.264;24.536;2023-02-15T12:09:50;100506.41;;;9.79;63.38
39793;BME280;26080;42.264;24.536;2023-02-15T12:12:35;100509.72;;;9.86;61.99
39793;BME280;26080;42.264;24.536;2023-02-15T12:15:04;100505.53;;;9.80;61.18
39793;BME280;26080;42.264;24.536;2023-02-15T12:17:37;100493.38;;;9.78;62.50
39793;BME280;26080;42.264;24.536;2023-02-15T12:20:20;100481.97;;;9.80;64.76
39793;BME280;26080;42.264;24.536;2023-02-15T12:23:12;100504.19;;;9.98;60.48
39793;BME280;26080;42.264;24.536;2023-02-15T12:25:53;100495.69;;;9.90;61.34
39793;BME280;26080;42.264;24.536;2023-02-15T12:28:40;100502.22;;;9.72;59.11
39793;BME280;26080;42.264;24.536;2023-02-15T12:31:33;100493.16;;;9.87;63.11
39793;BME280;26080;42.264;24.536;2023-02-15T12:34:03;100477.28;;;9.93;64.23
39793;BME280;26080;42.264;24.536;2023-02-15T12:36:45;100485.47;;;10.14;63.26
39793;BME280;26080;42.264;24.536;2023-02-15T12:39:27;100487.03;;;10.21;63.86
39793;BME280;26080;42.264;24.536;2023-02-15T12:49:26;100472.53;;;10.42;62.79
39793;BME280;26080;42.264;24.536;2023-02-15T12:51:57;100474.16;;;10.46;62.65
39793;BME280;26080;42.264;24.536;2023-02-15T12:56:56;100477.25;;;10.29;60.40
39793;BME280;26080;42.264;24.536;2023-02-15T12:59:23;100456.72;;;10.12;61.12
39793;BME280;26080;42.264;24.536;2023-02-15T13:12:19;100461.50;;;10.30;59.29
39793;BME280;26080;42.264;24.536;2023-02-15T13:14:47;100458.69;;;10.36;59.30
39793;BME280;26080;42.264;24.536;2023-02-15T13:17:16;100460.75;;;10.25;60.77
39793;BME280;26080;42.264;24.536;2023-02-15T13:19:52;100448.66;;;10.20;60.68
39793;BME280;26080;42.264;24.536;2023-02-15T13:22:27;100446.94;;;10.19;62.92
39793;BME280;26080;42.264;24.536;2023-02-15T13:24:58;100424.25;;;10.19;62.93
39793;BME280;26080;42.264;24.536;2023-02-15T13:27:31;100429.88;;;10.36;62.76
39793;BME280;26080;42.264;24.536;2023-02-15T13:30:00;100454.06;;;10.46;62.67
39793;BME280;26080;42.264;24.536;2023-02-15T13:32:29;100456.44;;;10.54;61.42
39793;BME280;26080;42.264;24.536;2023-02-15T13:34:58;100453.97;;;10.49;59.25
39793;BME280;26080;42.264;24.536;2023-02-15T13:42:36;100450.09;;;10.62;56.59
39793;BME280;26080;42.264;24.536;2023-02-15T13:53:47;100438.41;;;10.45;59.55
39793;BME280;26080;42.264;24.536;2023-02-15T13:57:05;100432.41;;;10.39;58.82
39793;BME280;26080;42.264;24.536;2023-02-15T14:07:23;100426.56;;;10.61;58.68
39793;BME280;26080;42.264;24.536;2023-02-15T14:10:03;100432.16;;;10.49;59.37
39793;BME280;26080;42.264;24.536;2023-02-15T14:26:59;100448.50;;;10.26;59.98
39793;BME280;26080;42.264;24.536;2023-02-15T14:29:47;100448.66;;;10.21;60.22
39793;BME280;26080;42.264;24.536;2023-02-15T14:32:27;100449.47;;;10.23;60.70
39793;BME280;26080;42.264;24.536;2023-02-15T14:34:59;100446.09;;;10.18;60.55
39793;BME280;26080;42.264;24.536;2023-02-15T14:37:51;100450.38;;;10.22;60.79
39793;BME280;26080;42.264;24.536;2023-02-15T14:40:42;100452.19;;;10.19;59.50
39793;BME280;26080;42.264;24.536;2023-02-15T15:02:03;100465.88;;;9.96;62.60
39793;BME280;26080;42.264;24.536;2023-02-15T15:09:41;100457.47;;;10.17;60.58
39793;BME280;26080;42.264;24.536;2023-02-15T15:14:53;100464.03;;;10.01;61.16
39793;BME280;26080;42.264;24.536;2023-02-15T15:20:03;100468.97;;;9.77;62.57
39793;BME280;26080;42.264;24.536;2023-02-15T15:22:31;100477.25;;;9.59;63.56
39793;BME280;26080;42.264;24.536;2023-02-15T15:27:47;100487.34;;;9.39;64.44
39793;BME280;26080;42.264;24.536;2023-02-15T15:49:16;100509.91;;;8.16;71.24
39793;BME280;26080;42.264;24.536;2023-02-15T15:51:51;100517.25;;;7.94;72.12
39793;BME280;26080;42.264;24.536;2023-02-15T15:54:25;100518.31;;;7.84;73.07
39793;BME280;26080;42.264;24.536;2023-02-15T15:56:55;100515.88;;;7.73;74.31
39793;BME280;26080;42.264;24.536;2023-02-15T15:59:26;100523.06;;;7.59;75.88
39793;BME280;26080;42.264;24.536;2023-02-15T16:01:53;100527.38;;;7.62;76.74
39793;BME280;26080;42.264;24.536;2023-02-15T16:04:30;100526.63;;;7.52;77.48
39793;BME280;26080;42.264;24.536;2023-02-15T16:06:57;100528.56;;;7.41;78.08
39793;BME280;26080;42.264;24.536;2023-02-15T16:09:38;100521.09;;;7.18;78.87
39793;BME280;26080;42.264;24.536;2023-02-15T16:12:04;100530.72;;;7.11;79.38
39793;BME280;26080;42.264;24.536;2023-02-15T16:14:40;100528.47;;;6.86;80.77
39793;BME280;26080;42.264;24.536;2023-02-15T16:17:13;100524.34;;;6.68;81.39
39793;BME280;26080;42.264;24.536;2023-02-15T16:19:42;100532.41;;;6.46;82.67
39793;BME280;26080;42.264;24.536;2023-02-15T16:22:24;100529.06;;;6.34;84.14
39793;BME280;26080;42.264;24.536;2023-02-15T16:27:39;100530.75;;;6.38;84.01
39793;BME280;26080;42.264;24.536;2023-02-15T16:33:13;100538.66;;;6.27;84.28
39793;BME280;26080;42.264;24.536;2023-02-15T16:36:00;100545.91;;;5.94;85.64